createdAt,value
2022-12-04T00:02:06.140Z,102217.28
2022-12-04T00:04:32.705Z,102222.50
2022-12-04T00:06:59.289Z,102221.81
2022-12-04T00:09:25.839Z,102216.53
2022-12-04T00:11:52.299Z,102224.19
2022-12-04T00:14:18.869Z,102224.94
2022-12-04T00:16:45.416Z,102230.25
2022-12-04T00:19:11.945Z,102223.44
2022-12-04T00:21:38.510Z,102217.28
2022-12-04T00:24:05.530Z,102206.06
2022-12-04T00:26:32.054Z,102208.69
2022-12-04T00:28:59.128Z,102201.59
2022-12-04T00:31:27.805Z,102209.25
2022-12-04T00:33:54.377Z,102197.88
2022-12-04T00:36:23.916Z,102203.28
2022-12-04T00:38:51.085Z,102199.00
2022-12-04T00:41:20.523Z,102189.47
2022-12-04T00:43:47.204Z,102200.66
2022-12-04T00:46:14.337Z,102204.78
2022-12-04T00:48:41.376Z,102201.44
2022-12-04T00:51:16.630Z,102194.50
2022-12-04T00:53:43.343Z,102189.47
2022-12-04T00:56:13.549Z,102196.38
2022-12-04T00:58:40.591Z,102200.84
2022-12-04T01:01:13.453Z,102189.28
2022-12-04T01:03:40.551Z,102190.22
2022-12-04T01:06:08.043Z,102189.47
2022-12-04T01:08:34.792Z,102186.94
2022-12-04T01:11:05.804Z,102198.81
2022-12-04T01:13:32.314Z,102197.19
2022-12-04T01:15:58.781Z,102196.56
2022-12-04T01:18:25.257Z,102187.97
2022-12-04T01:20:52.905Z,102193.00
2022-12-04T01:23:19.677Z,102190.28
2022-12-04T01:25:55.669Z,102184.13
2022-12-04T01:28:22.903Z,102199.56
2022-12-04T01:30:59.410Z,102185.66
2022-12-04T01:33:26.477Z,102189.88
2022-12-04T01:35:55.337Z,102183.88
2022-12-04T01:38:21.994Z,102186.50
2022-12-04T01:40:48.756Z,102180.53
2022-12-04T01:43:15.885Z,102185.00
2022-12-04T01:45:47.809Z,102181.34
2022-12-04T01:48:55.876Z,102185.00
2022-12-04T01:51:27.020Z,102176.31
2022-12-04T01:53:57.414Z,102187.31
2022-12-04T01:56:35.787Z,102192.47
2022-12-04T01:59:03.620Z,102200.31
2022-12-04T02:01:38.594Z,102192.66
2022-12-04T02:04:05.855Z,102198.63
2022-12-04T02:06:32.421Z,102193.41
2022-12-04T02:08:59.184Z,102203.41
2022-12-04T02:11:44.594Z,102213.03
2022-12-04T02:14:18.349Z,102206.13
2022-12-04T02:17:09.975Z,102197.53
2022-12-04T02:19:51.328Z,102193.97
2022-12-04T02:23:11.980Z,102201.91
2022-12-04T02:25:55.454Z,102189.94
2022-12-04T02:29:16.649Z,102194.16
2022-12-04T02:31:58.220Z,102193.88
2022-12-04T02:34:40.384Z,102197.34
2022-12-04T02:37:12.936Z,102198.00
2022-12-04T02:39:55.328Z,102198.00
2022-12-04T02:42:32.981Z,102192.94
2022-12-04T02:45:08.600Z,102190.44
2022-12-04T02:47:37.941Z,102180.91
2022-12-04T02:50:09.992Z,102190.34
2022-12-04T02:52:48.082Z,102177.44
2022-12-04T02:55:26.022Z,102178.19
2022-12-04T02:57:58.837Z,102180.75
2022-12-04T03:00:26.047Z,102173.91
2022-12-04T03:03:00.516Z,102174.66
2022-12-04T03:05:52.703Z,102174.84
2022-12-04T03:08:30.993Z,102176.44
2022-12-04T03:11:00.704Z,102174.75
2022-12-04T03:13:36.367Z,102170.28
2022-12-04T03:16:19.134Z,102163.44
2022-12-04T03:18:54.191Z,102174.75
2022-12-04T03:21:24.985Z,102158.41
2022-12-04T03:24:05.149Z,102157.56
2022-12-04T03:26:38.338Z,102155.91
2022-12-04T03:29:11.332Z,102153.94
2022-12-04T03:31:49.109Z,102147.13
2022-12-04T03:34:26.632Z,102153.09
2022-12-04T03:36:57.199Z,102147.78
2022-12-04T03:39:35.943Z,102138.53
2022-12-04T03:42:07.184Z,102148.81
2022-12-04T03:45:08.848Z,102148.81
2022-12-04T03:47:42.248Z,102156.66
2022-12-04T03:50:59.862Z,102153.19
2022-12-04T03:53:52.134Z,102160.94
2022-12-04T03:56:23.052Z,102156.72
2022-12-04T03:58:54.774Z,102148.81
2022-12-04T04:01:25.591Z,102154.84
2022-12-04T04:03:55.112Z,102150.66
2022-12-04T04:06:26.704Z,102155.91
2022-12-04T04:08:56.751Z,102157.56
2022-12-04T04:11:32.984Z,102163.63
2022-12-04T04:14:28.898Z,102156.72
2022-12-04T04:17:18.615Z,102156.66
2022-12-04T04:20:08.941Z,102149.63
2022-12-04T04:22:56.222Z,102153.84
2022-12-04T04:25:25.705Z,102144.16
2022-12-04T04:27:57.830Z,102146.09
2022-12-04T04:30:27.399Z,102146.00
2022-12-04T04:33:13.112Z,102150.31
2022-12-04T04:35:39.504Z,102145.91
2022-12-04T04:38:24.273Z,102145.91
2022-12-04T04:41:19.421Z,102141.91
2022-12-04T04:44:01.514Z,102146.09
2022-12-04T04:46:38.823Z,102146.09
2022-12-04T04:49:09.146Z,102140.97
2022-12-04T04:51:37.339Z,102145.44
2022-12-04T04:54:11.611Z,102157.47
2022-12-04T04:56:43.593Z,102152.25
2022-12-04T04:59:11.005Z,102142.72
2022-12-04T05:01:39.375Z,102139.28
2022-12-04T05:04:07.020Z,102145.25
2022-12-04T05:06:33.741Z,102153.00
2022-12-04T05:09:00.259Z,102152.25
2022-12-04T05:11:26.817Z,102152.34
2022-12-04T05:13:53.259Z,102149.91
2022-12-04T05:16:19.983Z,102147.31
2022-12-04T05:19:05.187Z,102150.09
2022-12-04T05:21:32.254Z,102149.16
2022-12-04T05:23:58.704Z,102146.44
2022-12-04T05:26:25.638Z,102153.47
2022-12-04T05:28:52.196Z,102164.66
2022-12-04T05:31:18.867Z,102168.97
2022-12-04T05:33:45.338Z,102164.56
2022-12-04T05:36:13.304Z,102165.13
2022-12-04T05:38:39.772Z,102165.25
2022-12-04T05:41:07.376Z,102167.84
2022-12-04T05:43:34.408Z,102160.94
2022-12-04T05:46:08.714Z,102160.75
2022-12-04T05:48:35.936Z,102166.00
2022-12-04T05:51:10.533Z,102170.28
2022-12-04T05:53:37.660Z,102164.38
2022-12-04T05:56:05.424Z,102157.41
2022-12-04T05:58:35.432Z,102166.00
2022-12-04T06:01:09.199Z,102155.59
2022-12-04T06:03:35.725Z,102162.63
2022-12-04T06:06:02.200Z,102160.94
2022-12-04T06:08:28.654Z,102155.72
2022-12-04T06:10:55.363Z,102154.03
2022-12-04T06:13:21.867Z,102153.94
2022-12-04T06:15:48.388Z,102151.25
2022-12-04T06:18:14.881Z,102156.53
2022-12-04T06:20:41.459Z,102153.00
2022-12-04T06:23:07.890Z,102159.06
2022-12-04T06:25:34.542Z,102148.81
2022-12-04T06:28:00.978Z,102152.34
2022-12-04T06:30:27.418Z,102157.47
2022-12-04T06:32:53.825Z,102155.53
2022-12-04T06:35:20.260Z,102169.34
2022-12-04T06:37:46.708Z,102157.03
2022-12-04T06:40:13.279Z,102162.25
2022-12-04T06:42:39.730Z,102164.94
2022-12-04T06:45:06.725Z,102170.09
2022-12-04T06:47:35.032Z,102158.03
2022-12-04T06:50:01.679Z,102165.81
2022-12-04T06:52:28.132Z,102165.81
2022-12-04T06:54:54.618Z,102164.13
2022-12-04T06:57:21.089Z,102164.13
2022-12-04T06:59:47.500Z,102167.31
2022-12-04T07:02:14.056Z,102163.94
2022-12-04T07:04:40.590Z,102159.66
2022-12-04T07:07:09.984Z,102162.25
2022-12-04T07:09:37.145Z,102162.25
2022-12-04T07:12:03.831Z,102162.44
2022-12-04T07:14:30.405Z,102166.00
2022-12-04T07:16:56.957Z,102175.22
2022-12-04T07:19:23.448Z,102164.13
2022-12-04T07:21:49.904Z,102166.63
2022-12-04T07:24:17.254Z,102176.09
2022-12-04T07:26:43.791Z,102183.00
2022-12-04T07:29:10.660Z,102180.44
2022-12-04T07:31:37.889Z,102170.84
2022-12-04T07:34:04.389Z,102167.31
2022-12-04T07:36:30.821Z,102174.41
2022-12-04T07:38:57.795Z,102164.78
2022-12-04T07:41:25.093Z,102163.94
2022-12-04T07:43:51.581Z,102173.66
2022-12-04T07:46:21.482Z,102172.53
2022-12-04T07:48:48.063Z,102176.91
2022-12-04T07:51:26.879Z,102183.06
2022-12-04T07:53:55.123Z,102176.91
2022-12-04T07:56:21.887Z,102174.13
2022-12-04T07:58:48.405Z,102177.59
2022-12-04T08:01:18.392Z,102181.88
2022-12-04T08:03:48.488Z,102176.72
2022-12-04T08:06:17.153Z,102183.47
2022-12-04T08:08:43.872Z,102173.75
2022-12-04T08:11:13.142Z,102190.38
2022-12-04T08:13:39.753Z,102194.78
2022-12-04T08:16:08.125Z,102190.47
2022-12-04T08:18:35.499Z,102197.47
2022-12-04T08:21:13.989Z,102190.38
2022-12-04T08:23:42.160Z,102195.53
2022-12-04T08:26:09.797Z,102195.41
2022-12-04T08:28:37.120Z,102196.28
2022-12-04T08:31:10.498Z,102196.28
2022-12-04T08:33:37.270Z,102203.00
2022-12-04T08:36:08.716Z,102203.00
2022-12-04T08:38:35.458Z,102211.59
2022-12-04T08:41:03.698Z,102205.44
2022-12-04T08:43:30.766Z,102206.25
2022-12-04T08:46:02.795Z,102212.34
2022-12-04T08:48:29.618Z,102217.47
2022-12-04T08:50:57.054Z,102215.59
2022-12-04T08:53:24.448Z,102209.91
2022-12-04T08:55:52.013Z,102212.25
2022-12-04T08:58:20.113Z,102215.59
2022-12-04T09:00:46.673Z,102212.81
2022-12-04T09:03:15.200Z,102215.53
2022-12-04T09:05:42.340Z,102219.84
2022-12-04T09:08:08.958Z,102218.41
2022-12-04T09:10:36.861Z,102219.16
2022-12-04T09:13:04.081Z,102211.25
2022-12-04T09:15:31.211Z,102214.78
2022-12-04T09:17:58.039Z,102219.34
2022-12-04T09:20:24.684Z,102219.16
2022-12-04T09:23:03.885Z,102218.41
2022-12-04T09:25:31.415Z,102215.72
2022-12-04T09:27:57.879Z,102212.34
2022-12-04T09:30:24.412Z,102208.22
2022-12-04T09:32:50.891Z,102217.84
2022-12-04T09:35:17.393Z,102220.56
2022-12-04T09:37:43.847Z,102218.69
2022-12-04T09:40:25.140Z,102214.84
2022-12-04T09:43:06.706Z,102207.75
2022-12-04T09:45:47.401Z,102212.91
2022-12-04T09:48:16.291Z,102213.66
2022-12-04T09:50:44.371Z,102217.09
2022-12-04T09:53:18.171Z,102211.81
2022-12-04T09:55:51.600Z,102218.72
2022-12-04T09:58:23.445Z,102213.50
2022-12-04T10:00:52.793Z,102216.19
2022-12-04T10:03:24.655Z,102214.41
2022-12-04T10:06:14.854Z,102207.31
2022-12-04T10:08:44.384Z,102194.44
2022-12-04T10:11:19.946Z,102200.41
2022-12-04T10:14:06.031Z,102194.31
2022-12-04T10:16:39.147Z,102204.59
2022-12-04T10:19:20.880Z,102208.72
2022-12-04T10:22:06.114Z,102201.72
2022-12-04T10:24:48.010Z,102195.63
2022-12-04T10:27:26.685Z,102202.66
2022-12-04T10:30:01.945Z,102205.28
2022-12-04T10:32:35.072Z,102202.84
2022-12-04T10:35:24.815Z,102201.53
2022-12-04T10:37:56.788Z,102201.44
2022-12-04T10:40:31.394Z,102204.81
2022-12-04T10:42:57.775Z,102209.28
2022-12-04T10:45:24.472Z,102198.19
2022-12-04T10:47:52.849Z,102205.84
2022-12-04T10:50:22.981Z,102199.94
2022-12-04T10:52:50.040Z,102188.72
2022-12-04T10:55:31.576Z,102193.97
2022-12-04T10:57:58.033Z,102185.94
2022-12-04T11:00:32.293Z,102192.66
2022-12-04T11:03:10.718Z,102185.84
2022-12-04T11:05:51.704Z,102183.06
2022-12-04T11:08:24.973Z,102184.00
2022-12-04T11:11:01.811Z,102183.06
2022-12-04T11:13:28.881Z,102179.50
2022-12-04T11:15:57.715Z,102174.84
2022-12-04T11:18:33.207Z,102183.50
2022-12-04T11:21:03.249Z,102178.38
2022-12-04T11:23:43.410Z,102182.69
2022-12-04T11:26:10.990Z,102176.59
2022-12-04T11:28:42.162Z,102189.31
2022-12-04T11:31:15.420Z,102174.53
2022-12-04T11:34:00.157Z,102171.00
2022-12-04T11:36:28.457Z,102165.69
2022-12-04T11:39:07.864Z,102166.63
2022-12-04T11:41:34.508Z,102165.50
2022-12-04T11:44:01.210Z,102162.56
2022-12-04T11:46:31.042Z,102150.44
2022-12-04T11:48:57.743Z,102153.25
2022-12-04T11:51:45.650Z,102143.63
2022-12-04T11:54:41.055Z,102141.56
2022-12-04T11:57:19.707Z,102129.41
2022-12-04T11:59:49.196Z,102130.34
2022-12-04T12:02:24.700Z,102120.72
2022-12-04T12:05:39.023Z,102113.41
2022-12-04T12:08:33.407Z,102112.38
2022-12-04T12:11:10.196Z,102111.53
2022-12-04T12:13:45.756Z,102112.19
2022-12-04T12:16:41.005Z,102104.31
2022-12-04T12:19:41.376Z,102121.63
2022-12-04T12:22:15.337Z,102109.38
2022-12-04T12:25:19.297Z,102110.13
2022-12-04T12:27:57.765Z,102110.84
2022-12-04T12:30:27.250Z,102108.44
2022-12-04T12:33:24.612Z,102110.97
2022-12-04T12:36:07.154Z,102103.19
2022-12-04T12:39:00.215Z,102103.00
2022-12-04T12:41:54.113Z,102104.50
2022-12-04T12:44:57.692Z,102106.28
2022-12-04T12:47:30.655Z,102104.69
2022-12-04T12:50:06.497Z,102104.50
2022-12-04T12:52:42.966Z,102096.75
2022-12-04T12:55:30.111Z,102104.31
2022-12-04T12:58:21.258Z,102102.22
2022-12-04T13:01:12.859Z,102100.66
2022-12-04T13:04:13.545Z,102105.91
2022-12-04T13:06:43.292Z,102094.50
2022-12-04T13:09:29.938Z,102106.53
2022-12-04T13:12:03.340Z,102091.56
2022-12-04T13:14:31.373Z,102091.47
2022-12-04T13:17:20.517Z,102082.97
2022-12-04T13:19:56.549Z,102082.88
2022-12-04T13:22:50.411Z,102081.94
2022-12-04T13:25:31.410Z,102081.00
2022-12-04T13:28:03.917Z,102084.16
2022-12-04T13:30:45.487Z,102081.75
2022-12-04T13:33:36.311Z,102082.78
2022-12-04T13:36:08.659Z,102083.72
2022-12-04T13:38:53.815Z,102075.78
2022-12-04T13:41:25.972Z,102075.78
2022-12-04T13:43:53.582Z,102081.75
2022-12-04T13:46:35.680Z,102077.25
2022-12-04T13:49:17.392Z,102080.16
2022-12-04T13:51:46.249Z,102070.63
2022-12-04T13:54:12.626Z,102075.84
2022-12-04T13:56:44.879Z,102080.06
2022-12-04T13:59:22.417Z,102100.81
2022-12-04T14:01:52.113Z,102091.56
2022-12-04T14:04:28.484Z,102094.19
2022-12-04T14:06:58.724Z,102094.09
2022-12-04T14:09:40.028Z,102094.91
2022-12-04T14:12:09.157Z,102096.16
2022-12-04T14:14:54.665Z,102094.56
2022-12-04T14:17:38.144Z,102105.78
2022-12-04T14:20:08.961Z,102093.81
2022-12-04T14:22:35.381Z,102108.59
2022-12-04T14:25:23.470Z,102108.72
2022-12-04T14:27:52.686Z,102112.91
2022-12-04T14:30:20.856Z,102102.41
2022-12-04T14:32:50.497Z,102088.59
2022-12-04T14:35:24.529Z,102089.44
2022-12-04T14:38:06.484Z,102096.25
2022-12-04T14:40:49.302Z,102102.41
2022-12-04T14:43:24.584Z,102095.50
2022-12-04T14:45:58.189Z,102105.97
2022-12-04T14:48:33.420Z,102099.06
2022-12-04T14:51:22.255Z,102109.53
2022-12-04T14:54:21.016Z,102107.56
2022-12-04T14:57:01.668Z,102099.59
2022-12-04T14:59:48.585Z,102102.97
2022-12-04T15:02:20.978Z,102099.72
2022-12-04T15:04:50.410Z,102102.22
2022-12-04T15:07:22.822Z,102085.78
2022-12-04T15:10:18.864Z,102105.03
2022-12-04T15:12:49.428Z,102092.16
2022-12-04T15:15:25.849Z,102098.25
2022-12-04T15:18:09.069Z,102095.69
2022-12-04T15:20:53.930Z,102093.94
2022-12-04T15:23:40.413Z,102097.56
2022-12-04T15:26:12.992Z,102096.00
2022-12-04T15:28:48.700Z,102090.13
2022-12-04T15:31:30.007Z,102101.13
2022-12-04T15:34:01.101Z,102097.56
2022-12-04T15:37:06.304Z,102099.25
2022-12-04T15:39:34.775Z,102096.63
2022-12-04T15:42:24.016Z,102110.59
2022-12-04T15:45:08.997Z,102114.03
2022-12-04T15:47:41.608Z,102113.19
2022-12-04T15:50:17.087Z,102116.56
2022-12-04T15:52:59.773Z,102119.38
2022-12-04T15:55:29.223Z,102113.28
2022-12-04T15:58:05.175Z,102117.56
2022-12-04T16:00:40.686Z,102126.09
2022-12-04T16:03:46.669Z,102117.19
2022-12-04T16:06:25.871Z,102129.47
2022-12-04T16:08:57.577Z,102124.84
2022-12-04T16:11:27.096Z,102126.34
2022-12-04T16:14:24.912Z,102132.44
2022-12-04T16:16:53.114Z,102140.09
2022-12-04T16:19:37.157Z,102124.47
2022-12-04T16:22:12.079Z,102135.59
2022-12-04T16:24:39.587Z,102138.94
2022-12-04T16:27:12.563Z,102137.91
2022-12-04T16:29:39.223Z,102131.91
2022-12-04T16:32:06.128Z,102129.22
2022-12-04T16:34:32.951Z,102125.56
2022-12-04T16:36:59.930Z,102126.41
2022-12-04T16:39:26.428Z,102118.44
2022-12-04T16:41:52.911Z,102128.72
2022-12-04T16:44:19.374Z,102118.25
2022-12-04T16:46:45.928Z,102126.75
2022-12-04T16:49:13.253Z,102125.81
2022-12-04T16:51:49.454Z,102122.34
2022-12-04T16:54:16.603Z,102127.59
2022-12-04T16:56:43.331Z,102130.75
2022-12-04T16:59:12.121Z,102119.44
2022-12-04T17:01:46.754Z,102133.16
2022-12-04T17:04:13.951Z,102118.38
2022-12-04T17:06:40.659Z,102114.94
2022-12-04T17:09:07.179Z,102119.13
2022-12-04T17:11:33.750Z,102118.00
2022-12-04T17:14:00.320Z,102124.81
2022-12-04T17:16:29.025Z,102117.72
2022-12-04T17:18:55.504Z,102119.38
2022-12-04T17:21:21.967Z,102120.94
2022-12-04T17:23:48.472Z,102126.19
2022-12-04T17:26:15.517Z,102117.59
2022-12-04T17:28:42.417Z,102121.91
2022-12-04T17:31:15.363Z,102124.44
2022-12-04T17:33:43.195Z,102126.94
2022-12-04T17:36:15.359Z,102133.66
2022-12-04T17:38:42.409Z,102131.97
2022-12-04T17:41:13.626Z,102124.31
2022-12-04T17:43:41.945Z,102132.72
2022-12-04T17:46:10.969Z,102133.66
2022-12-04T17:48:37.802Z,102143.94
2022-12-04T17:51:09.689Z,102140.56
2022-12-04T17:53:36.640Z,102155.06
2022-12-04T17:56:05.461Z,102145.31
2022-12-04T17:58:33.348Z,102139.97
2022-12-04T18:01:08.988Z,102135.47
2022-12-04T18:03:36.678Z,102141.44
2022-12-04T18:06:18.346Z,102135.38
2022-12-04T18:08:49.756Z,102149.75
2022-12-04T18:11:20.509Z,102152.25
2022-12-04T18:13:51.860Z,102150.59
2022-12-04T18:16:18.454Z,102152.38
2022-12-04T18:18:47.229Z,102146.41
2022-12-04T18:21:14.558Z,102151.63
2022-12-04T18:23:45.516Z,102151.44
2022-12-04T18:26:14.388Z,102155.00
2022-12-04T18:28:41.918Z,102163.47
2022-12-04T18:31:08.917Z,102164.44
2022-12-04T18:33:37.164Z,102164.34
2022-12-04T18:36:05.584Z,102167.06
2022-12-04T18:38:32.236Z,102167.78
2022-12-04T18:41:03.772Z,102163.47
2022-12-04T18:43:34.377Z,102163.69
2022-12-04T18:46:07.647Z,102163.69
2022-12-04T18:48:34.890Z,102157.72
2022-12-04T18:51:01.402Z,102162.75
2022-12-04T18:53:27.897Z,102158.66
2022-12-04T18:55:54.591Z,102151.72
2022-12-04T18:58:22.729Z,102157.91
2022-12-04T19:00:49.381Z,102154.47
2022-12-04T19:03:15.845Z,102164.75
2022-12-04T19:05:50.176Z,102161.19
2022-12-04T19:08:17.614Z,102155.28
2022-12-04T19:10:44.231Z,102155.41
2022-12-04T19:13:10.690Z,102159.59
2022-12-04T19:15:44.780Z,102150.38
2022-12-04T19:18:11.265Z,102157.38
2022-12-04T19:20:42.044Z,102159.16
2022-12-04T19:23:08.729Z,102154.00
2022-12-04T19:25:35.302Z,102158.22
2022-12-04T19:28:03.065Z,102168.72
2022-12-04T19:30:30.456Z,102160.84
2022-12-04T19:32:56.993Z,102155.59
2022-12-04T19:35:23.485Z,102155.69
2022-12-04T19:37:54.440Z,102158.09
2022-12-04T19:40:21.701Z,102150.44
2022-12-04T19:42:48.170Z,102163.28
2022-12-04T19:45:14.645Z,102161.47
2022-12-04T19:47:41.173Z,102165.78
2022-12-04T19:50:07.984Z,102166.50
2022-12-04T19:52:34.454Z,102156.16
2022-12-04T19:55:00.954Z,102161.38
2022-12-04T19:57:27.424Z,102158.09
2022-12-04T19:59:53.895Z,102162.22
2022-12-04T20:02:20.485Z,102158.03
2022-12-04T20:04:46.981Z,102158.22
2022-12-04T20:07:13.718Z,102165.78
2022-12-04T20:09:40.279Z,102159.78
2022-12-04T20:12:07.054Z,102166.50
2022-12-04T20:14:33.811Z,102169.13
2022-12-04T20:17:01.730Z,102159.59
2022-12-04T20:19:28.585Z,102176.06
2022-12-04T20:21:59.231Z,102165.56
2022-12-04T20:24:26.352Z,102160.31
2022-12-04T20:26:52.840Z,102156.88
2022-12-04T20:29:19.279Z,102162.75
2022-12-04T20:31:46.710Z,102146.94
2022-12-04T20:34:16.604Z,102152.19
2022-12-04T20:36:44.915Z,102146.09
2022-12-04T20:39:13.116Z,102155.63
2022-12-04T20:41:39.998Z,102152.81
2022-12-04T20:44:08.800Z,102152.59
2022-12-04T20:46:39.666Z,102155.97
2022-12-04T20:49:08.810Z,102156.91
2022-12-04T20:51:38.125Z,102161.13
2022-12-04T20:54:04.953Z,102157.63
2022-12-04T20:56:33.968Z,102161.00
2022-12-04T20:59:06.461Z,102164.34
2022-12-04T21:01:33.972Z,102154.06
2022-12-04T21:04:01.508Z,102161.84
2022-12-04T21:06:36.384Z,102161.72
2022-12-04T21:09:17.252Z,102168.56
2022-12-04T21:11:47.105Z,102169.41
2022-12-04T21:14:35.704Z,102165.84
2022-12-04T21:17:02.909Z,102161.72
2022-12-04T21:19:29.485Z,102167.50
2022-12-04T21:21:56.040Z,102166.69
2022-12-04T21:24:23.812Z,102173.63
2022-12-04T21:26:50.283Z,102174.22
2022-12-04T21:29:16.731Z,102160.19
2022-12-04T21:31:44.519Z,102164.28
2022-12-04T21:34:14.289Z,102156.53
2022-12-04T21:36:41.071Z,102164.16
2022-12-04T21:39:07.973Z,102165.09
2022-12-04T21:41:53.497Z,102159.84
2022-12-04T21:44:21.215Z,102164.06
2022-12-04T21:46:48.876Z,102165.53
2022-12-04T21:49:16.915Z,102151.91
2022-12-04T21:51:59.468Z,102153.38
2022-12-04T21:54:27.614Z,102158.50
2022-12-04T21:56:54.489Z,102156.94
2022-12-04T21:59:21.237Z,102153.03
2022-12-04T22:01:47.845Z,102154.84
2022-12-04T22:04:14.709Z,102153.25
2022-12-04T22:06:41.153Z,102159.16
2022-12-04T22:09:09.413Z,102155.66
2022-12-04T22:11:36.482Z,102165.13
2022-12-04T22:14:03.449Z,102165.88
2022-12-04T22:16:31.351Z,102169.31
2022-12-04T22:19:00.138Z,102167.63
2022-12-04T22:21:27.948Z,102159.88
2022-12-04T22:23:58.825Z,102159.78
2022-12-04T22:26:26.561Z,102154.53
2022-12-04T22:28:53.112Z,102150.97
2022-12-04T22:31:21.846Z,102155.38
2022-12-04T22:33:50.227Z,102149.91
2022-12-04T22:36:19.444Z,102154.22
2022-12-04T22:39:08.006Z,102159.34
2022-12-04T22:41:33.199Z,102153.06
2022-12-04T22:44:01.796Z,102166.94
2022-12-04T22:46:28.287Z,102164.38
2022-12-04T22:48:55.093Z,102168.59
2022-12-04T22:51:22.054Z,102164.81
2022-12-04T22:53:53.812Z,102158.84
2022-12-04T22:56:26.012Z,102162.00
2022-12-04T22:58:53.928Z,102159.38
2022-12-04T23:01:23.818Z,102156.00
2022-12-04T23:03:51.523Z,102166.19
2022-12-04T23:06:19.309Z,102158.44
2022-12-04T23:08:46.465Z,102155.81
2022-12-04T23:11:16.909Z,102156.53
2022-12-04T23:13:44.440Z,102152.25
2022-12-04T23:16:14.258Z,102160.63
2022-12-04T23:18:43.355Z,102152.53
2022-12-04T23:21:11.941Z,102144.69
2022-12-04T23:23:40.268Z,102150.44
2022-12-04T23:26:12.683Z,102141.72
2022-12-04T23:28:39.719Z,102144.25
2022-12-04T23:31:06.634Z,102140.69
2022-12-04T23:33:33.501Z,102150.13
2022-12-04T23:36:01.458Z,102145.72
2022-12-04T23:38:28.863Z,102143.09
2022-12-04T23:41:07.430Z,102143.19
2022-12-04T23:43:35.267Z,102148.34
2022-12-04T23:46:07.316Z,102149.91
2022-12-04T23:48:37.453Z,102143.09
2022-12-04T23:51:04.007Z,102144.56
2022-12-04T23:53:30.553Z,102144.44
2022-12-04T23:56:04.496Z,102152.97
2022-12-04T23:58:31.774Z,102145.09
